sensor_id;sensor_type;location;lat;lon;timestamp;temperature;humidity
16174;DHT22;14031;50.158;8.626;2024-01-30T00:01:52;3.60;99.90
16174;DHT22;14031;50.158;8.626;2024-01-30T00:04:19;3.50;99.90
16174;DHT22;14031;50.158;8.626;2024-01-30T00:06:46;3.50;99.90
16174;DHT22;14031;50.158;8.626;2024-01-30T00:09:14;3.50;99.90
16174;DHT22;14031;50.158;8.626;2024-01-30T00:11:40;3.50;99.90
16174;DHT22;14031;50.158;8.626;2024-01-30T00:14:07;3.40;99.90
16174;DHT22;14031;50.158;8.626;2024-01-30T00:16:34;3.40;99.90
16174;DHT22;14031;50.158;8.626;2024-01-30T00:19:01;3.40;99.90
16174;DHT22;14031;50.158;8.626;2024-01-30T00:21:28;3.40;99.90
16174;DHT22;14031;50.158;8.626;2024-01-30T00:23:54;3.40;99.90
16174;DHT22;14031;50.158;8.626;2024-01-30T00:26:23;3.40;99.90
16174;DHT22;14031;50.158;8.626;2024-01-30T00:28:49;3.40;99.90
16174;DHT22;14031;50.158;8.626;2024-01-30T00:31:16;3.40;99.90
16174;DHT22;14031;50.158;8.626;2024-01-30T00:33:43;3.30;99.90
16174;DHT22;14031;50.158;8.626;2024-01-30T00:36:10;3.30;99.90
16174;DHT22;14031;50.158;8.626;2024-01-30T00:38:37;3.30;99.90
16174;DHT22;14031;50.158;8.626;2024-01-30T00:41:04;3.30;99.90
16174;DHT22;14031;50.158;8.626;2024-01-30T00:43:32;3.30;99.90
16174;DHT22;14031;50.158;8.626;2024-01-30T00:45:59;3.30;99.90
16174;DHT22;14031;50.158;8.626;2024-01-30T00:48:26;3.30;99.90
16174;DHT22;14031;50.158;8.626;2024-01-30T00:50:52;3.30;99.90
16174;DHT22;14031;50.158;8.626;2024-01-30T00:53:20;3.30;99.90
16174;DHT22;14031;50.158;8.626;2024-01-30T00:55:47;3.30;99.90
16174;DHT22;14031;50.158;8.626;2024-01-30T00:58:13;3.20;99.90
16174;DHT22;14031;50.158;8.626;2024-01-30T01:00:42;3.20;99.90
16174;DHT22;14031;50.158;8.626;2024-01-30T01:03:08;3.20;99.90
16174;DHT22;14031;50.158;8.626;2024-01-30T01:05:35;3.20;99.90
16174;DHT22;14031;50.158;8.626;2024-01-30T01:08:02;3.10;99.90
16174;DHT22;14031;50.158;8.626;2024-01-30T01:10:29;3.10;99.90
16174;DHT22;14031;50.158;8.626;2024-01-30T01:12:56;3.10;99.90
16174;DHT22;14031;50.158;8.626;2024-01-30T01:15:23;3.10;99.90
16174;DHT22;14031;50.158;8.626;2024-01-30T01:17:51;3.10;99.90
16174;DHT22;14031;50.158;8.626;2024-01-30T01:20:18;3.10;99.90
16174;DHT22;14031;50.158;8.626;2024-01-30T01:22:45;3.10;99.90
16174;DHT22;14031;50.158;8.626;2024-01-30T01:25:11;3.10;99.90
16174;DHT22;14031;50.158;8.626;2024-01-30T01:27:38;3.00;99.90
16174;DHT22;14031;50.158;8.626;2024-01-30T01:30:08;3.00;99.90
16174;DHT22;14031;50.158;8.626;2024-01-30T01:32:36;3.00;99.90
16174;DHT22;14031;50.158;8.626;2024-01-30T01:35:06;3.00;99.90
16174;DHT22;14031;50.158;8.626;2024-01-30T01:37:32;3.00;99.90
16174;DHT22;14031;50.158;8.626;2024-01-30T01:40:00;3.00;99.90
16174;DHT22;14031;50.158;8.626;2024-01-30T01:42:26;2.90;99.90
16174;DHT22;14031;50.158;8.626;2024-01-30T01:44:53;3.00;99.90
16174;DHT22;14031;50.158;8.626;2024-01-30T01:47:20;2.90;99.90
16174;DHT22;14031;50.158;8.626;2024-01-30T01:49:47;2.90;99.90
16174;DHT22;14031;50.158;8.626;2024-01-30T01:52:15;2.90;99.90
16174;DHT22;14031;50.158;8.626;2024-01-30T01:54:43;2.90;99.90
16174;DHT22;14031;50.158;8.626;2024-01-30T01:57:10;2.90;99.90
16174;DHT22;14031;50.158;8.626;2024-01-30T01:59:37;2.90;99.90
16174;DHT22;14031;50.158;8.626;2024-01-30T02:02:04;2.90;99.90
16174;DHT22;14031;50.158;8.626;2024-01-30T02:04:33;2.90;99.90
16174;DHT22;14031;50.158;8.626;2024-01-30T02:07:00;2.90;99.90
16174;DHT22;14031;50.158;8.626;2024-01-30T02:09:28;2.80;99.90
16174;DHT22;14031;50.158;8.626;2024-01-30T02:11:55;2.80;99.90
16174;DHT22;14031;50.158;8.626;2024-01-30T02:14:22;2.80;99.90
16174;DHT22;14031;50.158;8.626;2024-01-30T02:16:48;2.80;99.90
16174;DHT22;14031;50.158;8.626;2024-01-30T02:19:15;2.80;99.90
16174;DHT22;14031;50.158;8.626;2024-01-30T02:21:44;2.80;99.90
16174;DHT22;14031;50.158;8.626;2024-01-30T02:24:11;2.80;99.90
16174;DHT22;14031;50.158;8.626;2024-01-30T02:26:38;2.80;99.90
16174;DHT22;14031;50.158;8.626;2024-01-30T02:29:04;2.80;99.90
16174;DHT22;14031;50.158;8.626;2024-01-30T02:31:31;2.80;99.90
16174;DHT22;14031;50.158;8.626;2024-01-30T02:33:58;2.80;99.90
16174;DHT22;14031;50.158;8.626;2024-01-30T02:36:24;2.70;99.90
16174;DHT22;14031;50.158;8.626;2024-01-30T02:38:53;2.70;99.90
16174;DHT22;14031;50.158;8.626;2024-01-30T02:41:20;2.70;99.90
16174;DHT22;14031;50.158;8.626;2024-01-30T02:43:47;2.70;99.90
16174;DHT22;14031;50.158;8.626;2024-01-30T02:46:13;2.70;99.90
16174;DHT22;14031;50.158;8.626;2024-01-30T02:48:40;2.70;99.90
16174;DHT22;14031;50.158;8.626;2024-01-30T02:51:07;2.70;99.90
16174;DHT22;14031;50.158;8.626;2024-01-30T02:53:32;2.60;99.90
16174;DHT22;14031;50.158;8.626;2024-01-30T02:56:03;2.60;99.90
16174;DHT22;14031;50.158;8.626;2024-01-30T02:58:31;2.60;99.90
16174;DHT22;14031;50.158;8.626;2024-01-30T03:00:58;2.70;99.90
16174;DHT22;14031;50.158;8.626;2024-01-30T03:03:24;2.60;99.90
16174;DHT22;14031;50.158;8.626;2024-01-30T03:05:51;2.70;99.90
16174;DHT22;14031;50.158;8.626;2024-01-30T03:08:18;2.60;99.90
16174;DHT22;14031;50.158;8.626;2024-01-30T03:10:44;2.60;99.90
16174;DHT22;14031;50.158;8.626;2024-01-30T03:13:13;2.60;99.90
16174;DHT22;14031;50.158;8.626;2024-01-30T03:15:39;2.50;99.90
16174;DHT22;14031;50.158;8.626;2024-01-30T03:18:06;2.50;99.90
16174;DHT22;14031;50.158;8.626;2024-01-30T03:20:33;2.50;99.90
16174;DHT22;14031;50.158;8.626;2024-01-30T03:23:00;2.60;99.90
16174;DHT22;14031;50.158;8.626;2024-01-30T03:25:27;2.50;99.90
16174;DHT22;14031;50.158;8.626;2024-01-30T03:27:53;2.50;99.90
16174;DHT22;14031;50.158;8.626;2024-01-30T03:30:21;2.40;99.90
16174;DHT22;14031;50.158;8.626;2024-01-30T03:32:48;2.40;99.90
16174;DHT22;14031;50.158;8.626;2024-01-30T03:35:15;2.40;99.90
16174;DHT22;14031;50.158;8.626;2024-01-30T03:37:42;2.30;99.90
16174;DHT22;14031;50.158;8.626;2024-01-30T03:40:10;2.30;99.90
16174;DHT22;14031;50.158;8.626;2024-01-30T03:42:36;2.30;99.90
16174;DHT22;14031;50.158;8.626;2024-01-30T03:45:04;2.30;99.90
16174;DHT22;14031;50.158;8.626;2024-01-30T03:47:32;2.30;99.90
16174;DHT22;14031;50.158;8.626;2024-01-30T03:49:59;2.30;99.90
16174;DHT22;14031;50.158;8.626;2024-01-30T03:52:26;2.30;99.90
16174;DHT22;14031;50.158;8.626;2024-01-30T03:54:52;2.30;99.90
16174;DHT22;14031;50.158;8.626;2024-01-30T03:57:19;2.30;99.90
16174;DHT22;14031;50.158;8.626;2024-01-30T03:59:46;2.30;99.90
16174;DHT22;14031;50.158;8.626;2024-01-30T04:02:13;2.30;99.90
16174;DHT22;14031;50.158;8.626;2024-01-30T04:04:41;2.30;99.90
16174;DHT22;14031;50.158;8.626;2024-01-30T04:07:08;2.30;99.90
16174;DHT22;14031;50.158;8.626;2024-01-30T04:09:34;2.30;99.90
16174;DHT22;14031;50.158;8.626;2024-01-30T04:12:01;2.30;99.90
16174;DHT22;14031;50.158;8.626;2024-01-30T04:14:29;2.30;99.90
16174;DHT22;14031;50.158;8.626;2024-01-30T04:16:56;2.30;99.90
16174;DHT22;14031;50.158;8.626;2024-01-30T04:19:22;2.30;99.90
16174;DHT22;14031;50.158;8.626;2024-01-30T04:21:50;2.30;99.90
16174;DHT22;14031;50.158;8.626;2024-01-30T04:24:17;2.30;99.90
16174;DHT22;14031;50.158;8.626;2024-01-30T04:26:44;2.30;99.90
16174;DHT22;14031;50.158;8.626;2024-01-30T04:29:11;2.30;99.90
16174;DHT22;14031;50.158;8.626;2024-01-30T04:31:38;2.30;99.90
16174;DHT22;14031;50.158;8.626;2024-01-30T04:34:04;2.30;99.90
16174;DHT22;14031;50.158;8.626;2024-01-30T04:36:31;2.30;99.90
16174;DHT22;14031;50.158;8.626;2024-01-30T04:38:59;2.30;99.90
16174;DHT22;14031;50.158;8.626;2024-01-30T04:41:26;2.30;99.90
16174;DHT22;14031;50.158;8.626;2024-01-30T04:43:56;2.30;99.90
16174;DHT22;14031;50.158;8.626;2024-01-30T04:46:23;2.30;99.90
16174;DHT22;14031;50.158;8.626;2024-01-30T04:48:50;2.30;99.90
16174;DHT22;14031;50.158;8.626;2024-01-30T04:51:17;2.30;99.90
16174;DHT22;14031;50.158;8.626;2024-01-30T04:53:43;2.30;99.90
16174;DHT22;14031;50.158;8.626;2024-01-30T04:56:11;2.30;99.90
16174;DHT22;14031;50.158;8.626;2024-01-30T04:58:38;2.30;99.90
16174;DHT22;14031;50.158;8.626;2024-01-30T05:01:05;2.20;99.90
16174;DHT22;14031;50.158;8.626;2024-01-30T05:03:33;2.30;99.90
16174;DHT22;14031;50.158;8.626;2024-01-30T05:06:00;2.20;99.90
16174;DHT22;14031;50.158;8.626;2024-01-30T05:08:27;2.20;99.90
16174;DHT22;14031;50.158;8.626;2024-01-30T05:10:54;2.20;99.90
16174;DHT22;14031;50.158;8.626;2024-01-30T05:13:22;2.30;99.90
16174;DHT22;14031;50.158;8.626;2024-01-30T05:15:48;2.30;99.90
16174;DHT22;14031;50.158;8.626;2024-01-30T05:18:15;2.30;99.90
16174;DHT22;14031;50.158;8.626;2024-01-30T05:20:42;2.30;99.90
16174;DHT22;14031;50.158;8.626;2024-01-30T05:23:09;2.20;99.90
16174;DHT22;14031;50.158;8.626;2024-01-30T05:25:35;2.20;99.90
16174;DHT22;14031;50.158;8.626;2024-01-30T05:28:02;2.20;99.90
16174;DHT22;14031;50.158;8.626;2024-01-30T05:30:30;2.20;99.90
16174;DHT22;14031;50.158;8.626;2024-01-30T05:32:57;2.20;99.90
16174;DHT22;14031;50.158;8.626;2024-01-30T05:35:24;2.20;99.90
16174;DHT22;14031;50.158;8.626;2024-01-30T05:37:51;2.20;99.90
16174;DHT22;14031;50.158;8.626;2024-01-30T05:40:17;2.20;99.90
16174;DHT22;14031;50.158;8.626;2024-01-30T05:42:44;2.20;99.90
16174;DHT22;14031;50.158;8.626;2024-01-30T05:45:11;2.20;99.90
16174;DHT22;14031;50.158;8.626;2024-01-30T05:47:39;2.20;99.90
16174;DHT22;14031;50.158;8.626;2024-01-30T05:50:07;2.20;99.90
16174;DHT22;14031;50.158;8.626;2024-01-30T05:52:34;2.20;99.90
16174;DHT22;14031;50.158;8.626;2024-01-30T05:55:00;2.20;99.90
16174;DHT22;14031;50.158;8.626;2024-01-30T05:57:28;2.20;99.90
16174;DHT22;14031;50.158;8.626;2024-01-30T05:59:54;2.10;99.90
16174;DHT22;14031;50.158;8.626;2024-01-30T06:02:21;2.20;99.90
16174;DHT22;14031;50.158;8.626;2024-01-30T06:04:49;2.10;99.90
16174;DHT22;14031;50.158;8.626;2024-01-30T06:07:16;2.10;99.90
16174;DHT22;14031;50.158;8.626;2024-01-30T06:09:43;2.10;99.90
16174;DHT22;14031;50.158;8.626;2024-01-30T06:12:11;2.10;99.90
16174;DHT22;14031;50.158;8.626;2024-01-30T06:14:38;2.10;99.90
16174;DHT22;14031;50.158;8.626;2024-01-30T06:17:05;2.10;99.90
16174;DHT22;14031;50.158;8.626;2024-01-30T06:19:32;2.10;99.90
16174;DHT22;14031;50.158;8.626;2024-01-30T06:22:00;2.10;99.90
16174;DHT22;14031;50.158;8.626;2024-01-30T06:24:29;2.10;99.90
16174;DHT22;14031;50.158;8.626;2024-01-30T06:26:56;2.10;99.90
16174;DHT22;14031;50.158;8.626;2024-01-30T06:29:22;2.10;99.90
16174;DHT22;14031;50.158;8.626;2024-01-30T06:31:50;2.10;99.90
16174;DHT22;14031;50.158;8.626;2024-01-30T06:34:17;2.00;99.90
16174;DHT22;14031;50.158;8.626;2024-01-30T06:36:43;2.00;99.90
16174;DHT22;14031;50.158;8.626;2024-01-30T06:39:11;2.00;99.90
16174;DHT22;14031;50.158;8.626;2024-01-30T06:41:38;2.00;99.90
16174;DHT22;14031;50.158;8.626;2024-01-30T06:44:05;2.00;99.90
16174;DHT22;14031;50.158;8.626;2024-01-30T06:46:33;2.00;99.90
16174;DHT22;14031;50.158;8.626;2024-01-30T06:49:00;2.00;99.90
16174;DHT22;14031;50.158;8.626;2024-01-30T06:51:27;2.00;99.90
16174;DHT22;14031;50.158;8.626;2024-01-30T06:53:54;2.00;99.90
16174;DHT22;14031;50.158;8.626;2024-01-30T06:56:22;2.00;99.90
16174;DHT22;14031;50.158;8.626;2024-01-30T06:58:49;2.00;99.90
16174;DHT22;14031;50.158;8.626;2024-01-30T07:01:16;2.00;99.90
16174;DHT22;14031;50.158;8.626;2024-01-30T07:03:43;1.90;99.90
16174;DHT22;14031;50.158;8.626;2024-01-30T07:06:10;2.00;99.90
16174;DHT22;14031;50.158;8.626;2024-01-30T07:08:37;2.00;99.90
16174;DHT22;14031;50.158;8.626;2024-01-30T07:11:04;2.00;99.90
16174;DHT22;14031;50.158;8.626;2024-01-30T07:13:33;2.00;99.90
16174;DHT22;14031;50.158;8.626;2024-01-30T07:16:00;2.00;99.90
16174;DHT22;14031;50.158;8.626;2024-01-30T07:18:27;2.00;99.90
16174;DHT22;14031;50.158;8.626;2024-01-30T07:20:54;2.00;99.90
16174;DHT22;14031;50.158;8.626;2024-01-30T07:23:21;2.00;99.90
16174;DHT22;14031;50.158;8.626;2024-01-30T07:25:48;2.00;99.90
16174;DHT22;14031;50.158;8.626;2024-01-30T07:28:15;2.10;99.90
16174;DHT22;14031;50.158;8.626;2024-01-30T07:30:44;2.00;99.90
16174;DHT22;14031;50.158;8.626;2024-01-30T07:33:11;2.10;99.90
16174;DHT22;14031;50.158;8.626;2024-01-30T07:35:37;2.10;99.90
16174;DHT22;14031;50.158;8.626;2024-01-30T07:38:04;2.20;99.90
16174;DHT22;14031;50.158;8.626;2024-01-30T07:40:31;2.10;99.90
16174;DHT22;14031;50.158;8.626;2024-01-30T07:42:58;2.20;99.90
16174;DHT22;14031;50.158;8.626;2024-01-30T07:45:26;2.20;99.90
16174;DHT22;14031;50.158;8.626;2024-01-30T07:47:59;2.30;99.90
16174;DHT22;14031;50.158;8.626;2024-01-30T07:50:26;2.30;99.90
16174;DHT22;14031;50.158;8.626;2024-01-30T07:52:53;2.30;99.90
16174;DHT22;14031;50.158;8.626;2024-01-30T07:55:20;2.40;99.90
16174;DHT22;14031;50.158;8.626;2024-01-30T07:57:49;2.60;99.90
16174;DHT22;14031;50.158;8.626;2024-01-30T08:00:17;2.50;99.90
16174;DHT22;14031;50.158;8.626;2024-01-30T08:02:44;2.50;99.90
16174;DHT22;14031;50.158;8.626;2024-01-30T08:05:13;2.50;99.90
16174;DHT22;14031;50.158;8.626;2024-01-30T08:07:40;2.60;99.90
16174;DHT22;14031;50.158;8.626;2024-01-30T08:10:08;2.60;99.90
16174;DHT22;14031;50.158;8.626;2024-01-30T08:12:35;2.70;99.90
16174;DHT22;14031;50.158;8.626;2024-01-30T08:15:01;2.70;99.90
16174;DHT22;14031;50.158;8.626;2024-01-30T08:17:28;2.80;99.90
16174;DHT22;14031;50.158;8.626;2024-01-30T08:19:55;2.80;99.90
16174;DHT22;14031;50.158;8.626;2024-01-30T08:22:23;2.80;99.90
16174;DHT22;14031;50.158;8.626;2024-01-30T08:24:50;2.90;99.90
16174;DHT22;14031;50.158;8.626;2024-01-30T08:27:17;3.00;99.90
16174;DHT22;14031;50.158;8.626;2024-01-30T08:29:43;3.10;99.90
16174;DHT22;14031;50.158;8.626;2024-01-30T08:32:10;3.10;99.90
16174;DHT22;14031;50.158;8.626;2024-01-30T08:34:37;3.20;99.90
16174;DHT22;14031;50.158;8.626;2024-01-30T08:37:03;3.30;99.90
16174;DHT22;14031;50.158;8.626;2024-01-30T08:39:32;3.40;99.90
16174;DHT22;14031;50.158;8.626;2024-01-30T08:41:58;3.50;99.90
16174;DHT22;14031;50.158;8.626;2024-01-30T08:44:25;3.60;99.90
16174;DHT22;14031;50.158;8.626;2024-01-30T08:46:52;3.70;99.90
16174;DHT22;14031;50.158;8.626;2024-01-30T08:49:20;3.70;99.90
16174;DHT22;14031;50.158;8.626;2024-01-30T08:51:47;3.80;99.90
16174;DHT22;14031;50.158;8.626;2024-01-30T08:54:14;3.90;99.90
16174;DHT22;14031;50.158;8.626;2024-01-30T08:56:42;4.00;99.90
16174;DHT22;14031;50.158;8.626;2024-01-30T08:59:08;4.00;99.90
16174;DHT22;14031;50.158;8.626;2024-01-30T09:01:35;4.10;99.90
16174;DHT22;14031;50.158;8.626;2024-01-30T09:04:02;4.10;99.90
16174;DHT22;14031;50.158;8.626;2024-01-30T09:06:29;4.10;99.90
16174;DHT22;14031;50.158;8.626;2024-01-30T09:08:56;4.30;99.90
16174;DHT22;14031;50.158;8.626;2024-01-30T09:11:24;4.20;99.90
16174;DHT22;14031;50.158;8.626;2024-01-30T09:13:52;4.30;99.90
16174;DHT22;14031;50.158;8.626;2024-01-30T09:16:18;4.40;99.90
16174;DHT22;14031;50.158;8.626;2024-01-30T09:18:45;4.50;99.90
16174;DHT22;14031;50.158;8.626;2024-01-30T09:21:12;4.60;99.90
16174;DHT22;14031;50.158;8.626;2024-01-30T09:23:39;4.60;99.90
16174;DHT22;14031;50.158;8.626;2024-01-30T09:26:06;4.70;99.90
16174;DHT22;14031;50.158;8.626;2024-01-30T09:28:32;4.70;99.90
16174;DHT22;14031;50.158;8.626;2024-01-30T09:31:00;4.70;99.90
16174;DHT22;14031;50.158;8.626;2024-01-30T09:33:28;4.80;99.90
16174;DHT22;14031;50.158;8.626;2024-01-30T09:35:55;4.80;99.90
16174;DHT22;14031;50.158;8.626;2024-01-30T09:38:21;4.90;99.90
16174;DHT22;14031;50.158;8.626;2024-01-30T09:40:54;5.00;99.90
16174;DHT22;14031;50.158;8.626;2024-01-30T09:43:23;5.00;99.90
16174;DHT22;14031;50.158;8.626;2024-01-30T09:45:50;5.10;99.90
16174;DHT22;14031;50.158;8.626;2024-01-30T09:48:19;5.20;99.90
16174;DHT22;14031;50.158;8.626;2024-01-30T09:50:46;5.30;99.90
16174;DHT22;14031;50.158;8.626;2024-01-30T09:53:13;5.30;99.90
16174;DHT22;14031;50.158;8.626;2024-01-30T09:55:43;5.40;99.90
16174;DHT22;14031;50.158;8.626;2024-01-30T09:58:10;5.40;99.90
16174;DHT22;14031;50.158;8.626;2024-01-30T10:00:36;5.50;99.90
16174;DHT22;14031;50.158;8.626;2024-01-30T10:03:04;5.70;99.90
16174;DHT22;14031;50.158;8.626;2024-01-30T10:05:33;5.60;99.90
16174;DHT22;14031;50.158;8.626;2024-01-30T10:08:06;5.60;99.90
16174;DHT22;14031;50.158;8.626;2024-01-30T10:10:33;5.70;99.90
16174;DHT22;14031;50.158;8.626;2024-01-30T10:13:00;5.70;99.90
16174;DHT22;14031;50.158;8.626;2024-01-30T10:15:28;5.70;99.90
16174;DHT22;14031;50.158;8.626;2024-01-30T10:17:54;5.70;99.90
16174;DHT22;14031;50.158;8.626;2024-01-30T10:20:21;5.70;99.90
16174;DHT22;14031;50.158;8.626;2024-01-30T10:32:42;5.90;99.90
16174;DHT22;14031;50.158;8.626;2024-01-30T10:35:09;5.80;99.90
16174;DHT22;14031;50.158;8.626;2024-01-30T10:37:36;5.90;99.90
16174;DHT22;14031;50.158;8.626;2024-01-30T10:40:04;6.10;99.90
16174;DHT22;14031;50.158;8.626;2024-01-30T10:42:42;6.10;99.90
16174;DHT22;14031;50.158;8.626;2024-01-30T10:45:12;6.10;99.90
16174;DHT22;14031;50.158;8.626;2024-01-30T10:47:44;6.10;99.90
16174;DHT22;14031;50.158;8.626;2024-01-30T10:50:16;6.20;99.90
16174;DHT22;14031;50.158;8.626;2024-01-30T10:52:45;6.20;99.90
16174;DHT22;14031;50.158;8.626;2024-01-30T10:55:16;6.20;99.90
16174;DHT22;14031;50.158;8.626;2024-01-30T10:57:45;6.20;99.90
16174;DHT22;14031;50.158;8.626;2024-01-30T11:00:14;6.30;99.90
16174;DHT22;14031;50.158;8.626;2024-01-30T11:02:46;6.40;99.90
16174;DHT22;14031;50.158;8.626;2024-01-30T11:05:27;6.40;99.90
16174;DHT22;14031;50.158;8.626;2024-01-30T11:08:13;6.60;99.90
16174;DHT22;14031;50.158;8.626;2024-01-30T11:10:46;6.70;99.90
16174;DHT22;14031;50.158;8.626;2024-01-30T11:13:14;6.70;99.90
16174;DHT22;14031;50.158;8.626;2024-01-30T11:15:44;6.70;99.90
16174;DHT22;14031;50.158;8.626;2024-01-30T11:18:24;6.80;99.90
16174;DHT22;14031;50.158;8.626;2024-01-30T11:20:56;6.90;99.90
16174;DHT22;14031;50.158;8.626;2024-01-30T11:23:25;6.90;99.90
16174;DHT22;14031;50.158;8.626;2024-01-30T11:25:56;6.90;99.90
16174;DHT22;14031;50.158;8.626;2024-01-30T11:28:24;7.10;99.90
16174;DHT22;14031;50.158;8.626;2024-01-30T11:30:51;7.00;99.90
16174;DHT22;14031;50.158;8.626;2024-01-30T11:33:29;7.00;99.90
16174;DHT22;14031;50.158;8.626;2024-01-30T11:35:59;7.00;99.90
16174;DHT22;14031;50.158;8.626;2024-01-30T11:38:30;7.10;99.90
16174;DHT22;14031;50.158;8.626;2024-01-30T11:40:57;7.10;99.90
16174;DHT22;14031;50.158;8.626;2024-01-30T11:43:25;7.10;99.90
16174;DHT22;14031;50.158;8.626;2024-01-30T11:45:52;7.20;99.90
16174;DHT22;14031;50.158;8.626;2024-01-30T11:48:21;7.20;99.90
16174;DHT22;14031;50.158;8.626;2024-01-30T11:51:10;7.30;99.90
16174;DHT22;14031;50.158;8.626;2024-01-30T11:53:44;7.40;99.90
16174;DHT22;14031;50.158;8.626;2024-01-30T11:56:14;7.40;99.90
16174;DHT22;14031;50.158;8.626;2024-01-30T11:58:56;7.60;99.90
16174;DHT22;14031;50.158;8.626;2024-01-30T12:01:35;7.80;99.90
16174;DHT22;14031;50.158;8.626;2024-01-30T12:04:39;7.90;99.90
16174;DHT22;14031;50.158;8.626;2024-01-30T12:07:28;8.00;99.90
16174;DHT22;14031;50.158;8.626;2024-01-30T12:10:08;8.20;99.90
16174;DHT22;14031;50.158;8.626;2024-01-30T12:12:36;8.20;99.90
16174;DHT22;14031;50.158;8.626;2024-01-30T12:15:07;8.30;99.90
16174;DHT22;14031;50.158;8.626;2024-01-30T12:19:07;8.30;99.90
16174;DHT22;14031;50.158;8.626;2024-01-30T12:21:26;8.40;99.90
16174;DHT22;14031;50.158;8.626;2024-01-30T12:24:36;8.40;99.90
16174;DHT22;14031;50.158;8.626;2024-01-30T12:27:16;8.50;99.90
16174;DHT22;14031;50.158;8.626;2024-01-30T12:30:32;8.50;99.90
16174;DHT22;14031;50.158;8.626;2024-01-30T12:33:24;8.50;99.90
16174;DHT22;14031;50.158;8.626;2024-01-30T12:36:24;8.60;99.90
16174;DHT22;14031;50.158;8.626;2024-01-30T12:39:26;8.70;99.90
16174;DHT22;14031;50.158;8.626;2024-01-30T12:45:39;8.70;99.90
16174;DHT22;14031;50.158;8.626;2024-01-30T12:48:06;8.90;99.90
16174;DHT22;14031;50.158;8.626;2024-01-30T12:50:33;8.90;99.90
16174;DHT22;14031;50.158;8.626;2024-01-30T12:53:00;9.00;99.90
16174;DHT22;14031;50.158;8.626;2024-01-30T12:55:26;9.00;99.90
16174;DHT22;14031;50.158;8.626;2024-01-30T12:57:54;9.10;99.90
16174;DHT22;14031;50.158;8.626;2024-01-30T13:00:21;9.20;99.90
16174;DHT22;14031;50.158;8.626;2024-01-30T13:02:49;9.20;99.90
16174;DHT22;14031;50.158;8.626;2024-01-30T13:05:16;9.20;99.90
16174;DHT22;14031;50.158;8.626;2024-01-30T13:07:43;9.30;99.90
16174;DHT22;14031;50.158;8.626;2024-01-30T13:10:09;9.40;99.90
16174;DHT22;14031;50.158;8.626;2024-01-30T13:12:36;9.40;99.90
16174;DHT22;14031;50.158;8.626;2024-01-30T13:15:04;9.50;99.90
16174;DHT22;14031;50.158;8.626;2024-01-30T13:17:31;9.50;99.90
16174;DHT22;14031;50.158;8.626;2024-01-30T13:20:00;9.50;99.90
16174;DHT22;14031;50.158;8.626;2024-01-30T13:22:26;9.50;99.90
16174;DHT22;14031;50.158;8.626;2024-01-30T13:24:53;9.50;99.90
16174;DHT22;14031;50.158;8.626;2024-01-30T13:27:20;9.50;99.90
16174;DHT22;14031;50.158;8.626;2024-01-30T13:29:47;9.50;99.90
16174;DHT22;14031;50.158;8.626;2024-01-30T13:32:14;9.40;99.90
16174;DHT22;14031;50.158;8.626;2024-01-30T13:34:41;9.40;99.90
16174;DHT22;14031;50.158;8.626;2024-01-30T13:37:09;9.30;99.90
16174;DHT22;14031;50.158;8.626;2024-01-30T13:39:36;9.20;99.90
16174;DHT22;14031;50.158;8.626;2024-01-30T13:42:03;9.20;99.90
16174;DHT22;14031;50.158;8.626;2024-01-30T13:44:30;9.20;99.90
16174;DHT22;14031;50.158;8.626;2024-01-30T13:46:56;9.10;99.90
16174;DHT22;14031;50.158;8.626;2024-01-30T13:49:23;9.10;99.90
16174;DHT22;14031;50.158;8.626;2024-01-30T13:51:50;9.10;99.90
16174;DHT22;14031;50.158;8.626;2024-01-30T13:54:18;9.00;99.90
16174;DHT22;14031;50.158;8.626;2024-01-30T13:56:45;9.10;99.90
16174;DHT22;14031;50.158;8.626;2024-01-30T13:59:12;9.00;99.90
16174;DHT22;14031;50.158;8.626;2024-01-30T14:01:38;9.00;99.90
16174;DHT22;14031;50.158;8.626;2024-01-30T14:04:05;9.00;99.90
16174;DHT22;14031;50.158;8.626;2024-01-30T14:06:32;9.00;99.90
16174;DHT22;14031;50.158;8.626;2024-01-30T14:08:59;9.00;99.90
16174;DHT22;14031;50.158;8.626;2024-01-30T14:11:27;9.10;99.90
16174;DHT22;14031;50.158;8.626;2024-01-30T14:13:53;9.10;99.90
16174;DHT22;14031;50.158;8.626;2024-01-30T14:16:20;9.10;99.90
16174;DHT22;14031;50.158;8.626;2024-01-30T14:18:47;9.20;99.90
16174;DHT22;14031;50.158;8.626;2024-01-30T14:21:14;9.10;99.90
16174;DHT22;14031;50.158;8.626;2024-01-30T14:23:41;9.00;99.90
16174;DHT22;14031;50.158;8.626;2024-01-30T14:26:08;9.00;99.90
16174;DHT22;14031;50.158;8.626;2024-01-30T14:28:36;9.00;99.90
16174;DHT22;14031;50.158;8.626;2024-01-30T14:31:03;9.00;99.90
16174;DHT22;14031;50.158;8.626;2024-01-30T14:33:30;9.00;99.90
16174;DHT22;14031;50.158;8.626;2024-01-30T14:35:57;8.90;99.90
16174;DHT22;14031;50.158;8.626;2024-01-30T14:38:24;8.90;99.90
16174;DHT22;14031;50.158;8.626;2024-01-30T14:40:51;8.90;99.90
16174;DHT22;14031;50.158;8.626;2024-01-30T14:43:18;8.90;99.90
16174;DHT22;14031;50.158;8.626;2024-01-30T14:45:46;8.80;99.90
16174;DHT22;14031;50.158;8.626;2024-01-30T14:48:15;8.90;99.90
16174;DHT22;14031;50.158;8.626;2024-01-30T14:50:41;8.70;99.90
16174;DHT22;14031;50.158;8.626;2024-01-30T14:53:08;8.70;99.90
16174;DHT22;14031;50.158;8.626;2024-01-30T14:55:35;8.70;99.90
16174;DHT22;14031;50.158;8.626;2024-01-30T14:58:02;8.70;99.90
16174;DHT22;14031;50.158;8.626;2024-01-30T15:00:29;8.60;99.90
16174;DHT22;14031;50.158;8.626;2024-01-30T15:02:57;8.60;99.90
16174;DHT22;14031;50.158;8.626;2024-01-30T15:05:24;8.60;99.90
16174;DHT22;14031;50.158;8.626;2024-01-30T15:07:51;8.60;99.90
16174;DHT22;14031;50.158;8.626;2024-01-30T15:10:18;8.60;99.90
16174;DHT22;14031;50.158;8.626;2024-01-30T15:12:44;8.60;99.90
16174;DHT22;14031;50.158;8.626;2024-01-30T15:15:11;8.60;99.90
16174;DHT22;14031;50.158;8.626;2024-01-30T15:17:38;8.50;99.90
16174;DHT22;14031;50.158;8.626;2024-01-30T15:20:07;8.50;99.90
16174;DHT22;14031;50.158;8.626;2024-01-30T15:22:34;8.50;99.90
16174;DHT22;14031;50.158;8.626;2024-01-30T15:25:01;8.50;99.90
16174;DHT22;14031;50.158;8.626;2024-01-30T15:27:28;8.50;99.90
16174;DHT22;14031;50.158;8.626;2024-01-30T15:29:55;8.50;99.90
16174;DHT22;14031;50.158;8.626;2024-01-30T15:32:22;8.50;99.90
16174;DHT22;14031;50.158;8.626;2024-01-30T15:34:49;8.40;99.90
16174;DHT22;14031;50.158;8.626;2024-01-30T15:37:17;8.40;99.90
16174;DHT22;14031;50.158;8.626;2024-01-30T15:39:44;8.40;99.90
16174;DHT22;14031;50.158;8.626;2024-01-30T15:42:11;8.30;99.90
16174;DHT22;14031;50.158;8.626;2024-01-30T15:44:38;8.40;99.90
16174;DHT22;14031;50.158;8.626;2024-01-30T15:47:05;8.40;99.90
16174;DHT22;14031;50.158;8.626;2024-01-30T15:49:32;8.40;99.90
16174;DHT22;14031;50.158;8.626;2024-01-30T15:51:59;8.50;99.90
16174;DHT22;14031;50.158;8.626;2024-01-30T15:54:27;8.40;99.90
16174;DHT22;14031;50.158;8.626;2024-01-30T15:56:54;8.40;99.90
16174;DHT22;14031;50.158;8.626;2024-01-30T15:59:20;8.30;99.90
16174;DHT22;14031;50.158;8.626;2024-01-30T16:01:47;8.40;99.90
16174;DHT22;14031;50.158;8.626;2024-01-30T16:04:15;8.30;99.90
16174;DHT22;14031;50.158;8.626;2024-01-30T16:06:42;8.40;99.90